sensor_id;sensor_type;location;lat;lon;timestamp;P1;durP1;ratioP1;P2;durP2;ratioP2
74457;SDS011;62896;51.032;3.712;2023-04-12T00:02:39;5;;;1.1;;
74457;SDS011;62896;51.032;3.712;2023-04-12T00:05:59;3.8;;;1.2;;
74457;SDS011;62896;51.032;3.712;2023-04-12T00:09:19;3.8;;;1.2;;
74457;SDS011;62896;51.032;3.712;2023-04-12T00:12:39;3.8;;;1.2;;
74457;SDS011;62896;51.032;3.712;2023-04-12T00:15:59;3.8;;;1.2;;
74457;SDS011;62896;51.032;3.712;2023-04-12T00:19:19;3.8;;;1.2;;
74457;SDS011;62896;51.032;3.712;2023-04-12T00:22:39;3.8;;;1.2;;
74457;SDS011;62896;51.032;3.712;2023-04-12T00:25:59;3.8;;;1.2;;
74457;SDS011;62896;51.032;3.712;2023-04-12T00:29:19;3.8;;;1.2;;
74457;SDS011;62896;51.032;3.712;2023-04-12T00:32:39;2.5;;;1;;
74457;SDS011;62896;51.032;3.712;2023-04-12T00:35:59;2.5;;;1;;
74457;SDS011;62896;51.032;3.712;2023-04-12T00:39:19;2.5;;;1;;
74457;SDS011;62896;51.032;3.712;2023-04-12T00:42:39;2.5;;;1;;
74457;SDS011;62896;51.032;3.712;2023-04-12T00:45:59;2.5;;;1;;
74457;SDS011;62896;51.032;3.712;2023-04-12T00:49:19;2.5;;;1;;
74457;SDS011;62896;51.032;3.712;2023-04-12T00:52:39;2.5;;;1;;
74457;SDS011;62896;51.032;3.712;2023-04-12T00:55:59;3.3;;;1;;
74457;SDS011;62896;51.032;3.712;2023-04-12T00:59:19;3.3;;;1;;
74457;SDS011;62896;51.032;3.712;2023-04-12T01:02:39;3.3;;;1;;
74457;SDS011;62896;51.032;3.712;2023-04-12T01:06:03;3.3;;;1;;
74457;SDS011;62896;51.032;3.712;2023-04-12T01:09:22;3.3;;;1;;
74457;SDS011;62896;51.032;3.712;2023-04-12T01:12:42;3.3;;;1;;
74457;SDS011;62896;51.032;3.712;2023-04-12T01:16:05;3.3;;;1;;
74457;SDS011;62896;51.032;3.712;2023-04-12T01:19:28;3.3;;;1;;
74457;SDS011;62896;51.032;3.712;2023-04-12T01:23:13;2.2;;;0.9;;
74457;SDS011;62896;51.032;3.712;2023-04-12T01:26:08;2.2;;;0.9;;
74457;SDS011;62896;51.032;3.712;2023-04-12T01:29:20;2.2;;;0.9;;
74457;SDS011;62896;51.032;3.712;2023-04-12T01:32:39;2.2;;;0.9;;
74457;SDS011;62896;51.032;3.712;2023-04-12T01:35:59;2.2;;;0.9;;
74457;SDS011;62896;51.032;3.712;2023-04-12T01:39:19;2.2;;;0.9;;
74457;SDS011;62896;51.032;3.712;2023-04-12T01:42:39;2.2;;;0.9;;
74457;SDS011;62896;51.032;3.712;2023-04-12T01:45:59;3.6;;;1.4;;
74457;SDS011;62896;51.032;3.712;2023-04-12T01:49:19;3.6;;;1.4;;
74457;SDS011;62896;51.032;3.712;2023-04-12T01:52:41;3.6;;;1.4;;
74457;SDS011;62896;51.032;3.712;2023-04-12T01:56:01;3.6;;;1.4;;
74457;SDS011;62896;51.032;3.712;2023-04-12T01:59:19;3.6;;;1.4;;
74457;SDS011;62896;51.032;3.712;2023-04-12T02:02:39;3.6;;;1.4;;
74457;SDS011;62896;51.032;3.712;2023-04-12T02:05:59;3.6;;;1.4;;
74457;SDS011;62896;51.032;3.712;2023-04-12T02:09:19;3.6;;;1.4;;
74457;SDS011;62896;51.032;3.712;2023-04-12T02:12:39;3.6;;;0.9;;
74457;SDS011;62896;51.032;3.712;2023-04-12T02:15:59;3.6;;;0.9;;
74457;SDS011;62896;51.032;3.712;2023-04-12T02:19:19;3.6;;;0.9;;
74457;SDS011;62896;51.032;3.712;2023-04-12T02:22:39;3.6;;;0.9;;
74457;SDS011;62896;51.032;3.712;2023-04-12T02:25:59;3.6;;;0.9;;
74457;SDS011;62896;51.032;3.712;2023-04-12T02:29:19;3.6;;;0.9;;
74457;SDS011;62896;51.032;3.712;2023-04-12T02:32:39;3.6;;;0.9;;
74457;SDS011;62896;51.032;3.712;2023-04-12T02:35:59;3.9;;;1.1;;
74457;SDS011;62896;51.032;3.712;2023-04-12T02:39:19;3.9;;;1.1;;
74457;SDS011;62896;51.032;3.712;2023-04-12T02:42:40;3.9;;;1.1;;
74457;SDS011;62896;51.032;3.712;2023-04-12T02:45:59;3.9;;;1.1;;
74457;SDS011;62896;51.032;3.712;2023-04-12T02:49:19;3.9;;;1.1;;
74457;SDS011;62896;51.032;3.712;2023-04-12T02:52:39;3.9;;;1.1;;
74457;SDS011;62896;51.032;3.712;2023-04-12T02:55:59;3.9;;;1.1;;
74457;SDS011;62896;51.032;3.712;2023-04-12T02:59:19;3.9;;;1.1;;
74457;SDS011;62896;51.032;3.712;2023-04-12T03:02:40;4.6;;;1;;
74457;SDS011;62896;51.032;3.712;2023-04-12T03:06:00;4.6;;;1;;
74457;SDS011;62896;51.032;3.712;2023-04-12T03:09:20;4.6;;;1;;
74457;SDS011;62896;51.032;3.712;2023-04-12T03:12:39;4.6;;;1;;
74457;SDS011;62896;51.032;3.712;2023-04-12T03:16:00;4.6;;;1;;
74457;SDS011;62896;51.032;3.712;2023-04-12T03:19:19;4.6;;;1;;
74457;SDS011;62896;51.032;3.712;2023-04-12T03:22:39;4.6;;;1;;
74457;SDS011;62896;51.032;3.712;2023-04-12T03:26:00;2;;;0.7;;
74457;SDS011;62896;51.032;3.712;2023-04-12T03:29:19;2;;;0.7;;
74457;SDS011;62896;51.032;3.712;2023-04-12T03:32:40;2;;;0.7;;
74457;SDS011;62896;51.032;3.712;2023-04-12T03:35:59;2;;;0.7;;
74457;SDS011;62896;51.032;3.712;2023-04-12T03:39:19;2;;;0.7;;
74457;SDS011;62896;51.032;3.712;2023-04-12T03:42:40;2;;;0.7;;
74457;SDS011;62896;51.032;3.712;2023-04-12T03:46:00;2;;;0.7;;
74457;SDS011;62896;51.032;3.712;2023-04-12T03:49:19;2;;;0.7;;
74457;SDS011;62896;51.032;3.712;2023-04-12T03:52:39;5;;;1.1;;
74457;SDS011;62896;51.032;3.712;2023-04-12T03:55:59;5;;;1.1;;
74457;SDS011;62896;51.032;3.712;2023-04-12T03:59:20;5;;;1.1;;
74457;SDS011;62896;51.032;3.712;2023-04-12T04:02:39;5;;;1.1;;
74457;SDS011;62896;51.032;3.712;2023-04-12T04:06:00;5;;;1.1;;
74457;SDS011;62896;51.032;3.712;2023-04-12T04:09:19;5;;;1.1;;
74457;SDS011;62896;51.032;3.712;2023-04-12T04:12:39;5;;;1.1;;
74457;SDS011;62896;51.032;3.712;2023-04-12T04:16:01;3.1;;;1.5;;
74457;SDS011;62896;51.032;3.712;2023-04-12T04:19:19;3.1;;;1.5;;
74457;SDS011;62896;51.032;3.712;2023-04-12T04:22:39;3.1;;;1.5;;
74457;SDS011;62896;51.032;3.712;2023-04-12T04:25:59;3.1;;;1.5;;
74457;SDS011;62896;51.032;3.712;2023-04-12T04:29:20;3.1;;;1.5;;
74457;SDS011;62896;51.032;3.712;2023-04-12T04:32:40;3.1;;;1.5;;
74457;SDS011;62896;51.032;3.712;2023-04-12T04:36:00;3.1;;;1.5;;
74457;SDS011;62896;51.032;3.712;2023-04-12T04:39:19;3.1;;;1.5;;
74457;SDS011;62896;51.032;3.712;2023-04-12T04:42:39;5.2;;;2.3;;
74457;SDS011;62896;51.032;3.712;2023-04-12T04:46:00;5.2;;;2.3;;
74457;SDS011;62896;51.032;3.712;2023-04-12T04:49:20;5.2;;;2.3;;
74457;SDS011;62896;51.032;3.712;2023-04-12T04:52:40;5.2;;;2.3;;
74457;SDS011;62896;51.032;3.712;2023-04-12T04:56:00;5.2;;;2.3;;
74457;SDS011;62896;51.032;3.712;2023-04-12T04:59:20;5.2;;;2.3;;
74457;SDS011;62896;51.032;3.712;2023-04-12T05:02:40;5.2;;;2.3;;
74457;SDS011;62896;51.032;3.712;2023-04-12T05:06:00;7.7;;;1.7;;
74457;SDS011;62896;51.032;3.712;2023-04-12T05:09:20;7.7;;;1.7;;
74457;SDS011;62896;51.032;3.712;2023-04-12T05:12:40;7.7;;;1.7;;
74457;SDS011;62896;51.032;3.712;2023-04-12T05:16:00;7.7;;;1.7;;
74457;SDS011;62896;51.032;3.712;2023-04-12T05:19:20;7.7;;;1.7;;
74457;SDS011;62896;51.032;3.712;2023-04-12T05:22:40;7.7;;;1.7;;
74457;SDS011;62896;51.032;3.712;2023-04-12T05:26:00;7.7;;;1.7;;
74457;SDS011;62896;51.032;3.712;2023-04-12T05:29:20;7.7;;;1.7;;
74457;SDS011;62896;51.032;3.712;2023-04-12T05:32:40;9.2;;;1.4;;
74457;SDS011;62896;51.032;3.712;2023-04-12T05:36:00;9.2;;;1.4;;
74457;SDS011;62896;51.032;3.712;2023-04-12T05:39:20;9.2;;;1.4;;
74457;SDS011;62896;51.032;3.712;2023-04-12T05:42:40;9.2;;;1.4;;
74457;SDS011;62896;51.032;3.712;2023-04-12T05:46:00;9.2;;;1.4;;
74457;SDS011;62896;51.032;3.712;2023-04-12T05:49:20;9.2;;;1.4;;
74457;SDS011;62896;51.032;3.712;2023-04-12T05:52:40;9.2;;;1.4;;
74457;SDS011;62896;51.032;3.712;2023-04-12T05:56:00;10.7;;;1.6;;
74457;SDS011;62896;51.032;3.712;2023-04-12T05:59:20;10.7;;;1.6;;
74457;SDS011;62896;51.032;3.712;2023-04-12T06:02:40;10.7;;;1.6;;
74457;SDS011;62896;51.032;3.712;2023-04-12T06:06:00;10.7;;;1.6;;
74457;SDS011;62896;51.032;3.712;2023-04-12T06:09:20;10.7;;;1.6;;
74457;SDS011;62896;51.032;3.712;2023-04-12T06:12:40;10.7;;;1.6;;
74457;SDS011;62896;51.032;3.712;2023-04-12T06:16:00;10.7;;;1.6;;
74457;SDS011;62896;51.032;3.712;2023-04-12T06:19:20;10.7;;;1.6;;
74457;SDS011;62896;51.032;3.712;2023-04-12T06:22:40;8.4;;;1.8;;
74457;SDS011;62896;51.032;3.712;2023-04-12T06:26:00;8.4;;;1.8;;
74457;SDS011;62896;51.032;3.712;2023-04-12T06:29:20;8.4;;;1.8;;
74457;SDS011;62896;51.032;3.712;2023-04-12T06:32:40;8.4;;;1.8;;
74457;SDS011;62896;51.032;3.712;2023-04-12T06:36:00;8.4;;;1.8;;
74457;SDS011;62896;51.032;3.712;2023-04-12T06:39:20;8.4;;;1.8;;
74457;SDS011;62896;51.032;3.712;2023-04-12T06:42:40;8.4;;;1.8;;
74457;SDS011;62896;51.032;3.712;2023-04-12T06:46:00;10.6;;;2.2;;
74457;SDS011;62896;51.032;3.712;2023-04-12T06:49:20;10.6;;;2.2;;
74457;SDS011;62896;51.032;3.712;2023-04-12T06:52:40;10.6;;;2.2;;
74457;SDS011;62896;51.032;3.712;2023-04-12T06:56:02;10.6;;;2.2;;
74457;SDS011;62896;51.032;3.712;2023-04-12T06:59:20;10.6;;;2.2;;
74457;SDS011;62896;51.032;3.712;2023-04-12T07:02:40;10.6;;;2.2;;
74457;SDS011;62896;51.032;3.712;2023-04-12T07:06:00;10.6;;;2.2;;
74457;SDS011;62896;51.032;3.712;2023-04-12T07:09:20;10.6;;;2.2;;
74457;SDS011;62896;51.032;3.712;2023-04-12T07:12:40;10.6;;;2.1;;
74457;SDS011;62896;51.032;3.712;2023-04-12T07:16:00;10.6;;;2.1;;
74457;SDS011;62896;51.032;3.712;2023-04-12T07:19:20;10.6;;;2.1;;
74457;SDS011;62896;51.032;3.712;2023-04-12T07:22:40;10.6;;;2.1;;
74457;SDS011;62896;51.032;3.712;2023-04-12T07:26:00;10.6;;;2.1;;
74457;SDS011;62896;51.032;3.712;2023-04-12T07:29:20;10.6;;;2.1;;
74457;SDS011;62896;51.032;3.712;2023-04-12T07:32:40;10.6;;;2.1;;
74457;SDS011;62896;51.032;3.712;2023-04-12T07:36:00;14;;;1.9;;
74457;SDS011;62896;51.032;3.712;2023-04-12T07:39:20;14;;;1.9;;
74457;SDS011;62896;51.032;3.712;2023-04-12T07:42:40;14;;;1.9;;
74457;SDS011;62896;51.032;3.712;2023-04-12T07:46:00;14;;;1.9;;
74457;SDS011;62896;51.032;3.712;2023-04-12T07:49:20;14;;;1.9;;
74457;SDS011;62896;51.032;3.712;2023-04-12T07:52:40;14;;;1.9;;
74457;SDS011;62896;51.032;3.712;2023-04-12T07:56:00;14;;;1.9;;
74457;SDS011;62896;51.032;3.712;2023-04-12T07:59:20;14;;;1.9;;
74457;SDS011;62896;51.032;3.712;2023-04-12T08:02:40;13.2;;;2;;
74457;SDS011;62896;51.032;3.712;2023-04-12T08:06:00;13.2;;;2;;
74457;SDS011;62896;51.032;3.712;2023-04-12T08:09:20;13.2;;;2;;
74457;SDS011;62896;51.032;3.712;2023-04-12T08:12:40;13.2;;;2;;
74457;SDS011;62896;51.032;3.712;2023-04-12T08:16:00;13.2;;;2;;
74457;SDS011;62896;51.032;3.712;2023-04-12T08:19:20;13.2;;;2;;
74457;SDS011;62896;51.032;3.712;2023-04-12T08:22:40;13.2;;;2;;
74457;SDS011;62896;51.032;3.712;2023-04-12T08:26:00;6.5;;;1.5;;
74457;SDS011;62896;51.032;3.712;2023-04-12T08:29:20;6.5;;;1.5;;
74457;SDS011;62896;51.032;3.712;2023-04-12T08:32:40;6.5;;;1.5;;
74457;SDS011;62896;51.032;3.712;2023-04-12T08:36:00;6.5;;;1.5;;
74457;SDS011;62896;51.032;3.712;2023-04-12T08:39:20;6.5;;;1.5;;
74457;SDS011;62896;51.032;3.712;2023-04-12T08:42:40;6.5;;;1.5;;
74457;SDS011;62896;51.032;3.712;2023-04-12T08:46:00;6.5;;;1.5;;
74457;SDS011;62896;51.032;3.712;2023-04-12T08:49:20;6.5;;;1.5;;
74457;SDS011;62896;51.032;3.712;2023-04-12T08:52:41;11;;;2.3;;
74457;SDS011;62896;51.032;3.712;2023-04-12T08:56:00;11;;;2.3;;
74457;SDS011;62896;51.032;3.712;2023-04-12T08:59:20;11;;;2.3;;
74457;SDS011;62896;51.032;3.712;2023-04-12T09:02:40;11;;;2.3;;
74457;SDS011;62896;51.032;3.712;2023-04-12T09:06:01;11;;;2.3;;
74457;SDS011;62896;51.032;3.712;2023-04-12T09:09:32;11;;;2.3;;
74457;SDS011;62896;51.032;3.712;2023-04-12T09:12:44;11;;;2.3;;
74457;SDS011;62896;51.032;3.712;2023-04-12T09:16:00;14.3;;;2.5;;
74457;SDS011;62896;51.032;3.712;2023-04-12T09:19:29;14.3;;;2.5;;
74457;SDS011;62896;51.032;3.712;2023-04-12T09:22:40;14.3;;;2.5;;
74457;SDS011;62896;51.032;3.712;2023-04-12T09:26:00;14.3;;;2.5;;
74457;SDS011;62896;51.032;3.712;2023-04-12T09:29:20;14.3;;;2.5;;
74457;SDS011;62896;51.032;3.712;2023-04-12T09:32:40;14.3;;;2.5;;
74457;SDS011;62896;51.032;3.712;2023-04-12T09:36:00;14.3;;;2.5;;
74457;SDS011;62896;51.032;3.712;2023-04-12T09:39:25;14.3;;;2.5;;
74457;SDS011;62896;51.032;3.712;2023-04-12T09:42:49;11.6;;;2.5;;
74457;SDS011;62896;51.032;3.712;2023-04-12T09:46:05;11.6;;;2.5;;
74457;SDS011;62896;51.032;3.712;2023-04-12T09:49:20;11.6;;;2.5;;
74457;SDS011;62896;51.032;3.712;2023-04-12T09:52:40;11.6;;;2.5;;
74457;SDS011;62896;51.032;3.712;2023-04-12T09:56:00;11.6;;;2.5;;
74457;SDS011;62896;51.032;3.712;2023-04-12T09:59:20;11.6;;;2.5;;
74457;SDS011;62896;51.032;3.712;2023-04-12T10:02:40;11.6;;;2.5;;
74457;SDS011;62896;51.032;3.712;2023-04-12T10:06:01;15.7;;;2.4;;
74457;SDS011;62896;51.032;3.712;2023-04-12T10:09:20;15.7;;;2.4;;
74457;SDS011;62896;51.032;3.712;2023-04-12T10:12:40;15.7;;;2.4;;
74457;SDS011;62896;51.032;3.712;2023-04-12T10:16:00;15.7;;;2.4;;
74457;SDS011;62896;51.032;3.712;2023-04-12T10:19:20;15.7;;;2.4;;
74457;SDS011;62896;51.032;3.712;2023-04-12T10:22:40;15.7;;;2.4;;
74457;SDS011;62896;51.032;3.712;2023-04-12T10:26:01;15.7;;;2.4;;
74457;SDS011;62896;51.032;3.712;2023-04-12T10:29:21;15.7;;;2.4;;
74457;SDS011;62896;51.032;3.712;2023-04-12T10:32:40;15.2;;;2.6;;
74457;SDS011;62896;51.032;3.712;2023-04-12T10:36:01;15.2;;;2.6;;
74457;SDS011;62896;51.032;3.712;2023-04-12T10:39:36;15.2;;;2.6;;
74457;SDS011;62896;51.032;3.712;2023-04-12T10:42:40;15.2;;;2.6;;
74457;SDS011;62896;51.032;3.712;2023-04-12T10:46:00;15.2;;;2.6;;
74457;SDS011;62896;51.032;3.712;2023-04-12T10:49:20;15.2;;;2.6;;
74457;SDS011;62896;51.032;3.712;2023-04-12T10:52:40;15.2;;;2.6;;
74457;SDS011;62896;51.032;3.712;2023-04-12T10:56:00;9.1;;;1.9;;
74457;SDS011;62896;51.032;3.712;2023-04-12T10:59:20;9.1;;;1.9;;
74457;SDS011;62896;51.032;3.712;2023-04-12T11:03:12;9.1;;;1.9;;
74457;SDS011;62896;51.032;3.712;2023-04-12T11:06:00;9.1;;;1.9;;
74457;SDS011;62896;51.032;3.712;2023-04-12T11:09:20;9.1;;;1.9;;
74457;SDS011;62896;51.032;3.712;2023-04-12T11:12:40;9.1;;;1.9;;
74457;SDS011;62896;51.032;3.712;2023-04-12T11:16:00;9.1;;;1.9;;
74457;SDS011;62896;51.032;3.712;2023-04-12T11:19:20;9.1;;;1.9;;
74457;SDS011;62896;51.032;3.712;2023-04-12T11:22:40;3.8;;;1;;
74457;SDS011;62896;51.032;3.712;2023-04-12T11:26:00;3.8;;;1;;
74457;SDS011;62896;51.032;3.712;2023-04-12T11:29:22;3.8;;;1;;
74457;SDS011;62896;51.032;3.712;2023-04-12T11:32:43;3.8;;;1;;
74457;SDS011;62896;51.032;3.712;2023-04-12T11:36:02;3.8;;;1;;
74457;SDS011;62896;51.032;3.712;2023-04-12T11:39:20;3.8;;;1;;
74457;SDS011;62896;51.032;3.712;2023-04-12T11:42:40;3.8;;;1;;
74457;SDS011;62896;51.032;3.712;2023-04-12T11:46:00;4.5;;;0.7;;
74457;SDS011;62896;51.032;3.712;2023-04-12T11:49:21;4.5;;;0.7;;
74457;SDS011;62896;51.032;3.712;2023-04-12T11:52:40;4.5;;;0.7;;
74457;SDS011;62896;51.032;3.712;2023-04-12T11:56:00;4.5;;;0.7;;
74457;SDS011;62896;51.032;3.712;2023-04-12T11:59:20;4.5;;;0.7;;
74457;SDS011;62896;51.032;3.712;2023-04-12T12:02:40;4.5;;;0.7;;
74457;SDS011;62896;51.032;3.712;2023-04-12T12:06:00;4.5;;;0.7;;
74457;SDS011;62896;51.032;3.712;2023-04-12T12:09:20;4.5;;;0.7;;
74457;SDS011;62896;51.032;3.712;2023-04-12T12:12:41;4.2;;;1;;
74457;SDS011;62896;51.032;3.712;2023-04-12T12:16:00;4.2;;;1;;
74457;SDS011;62896;51.032;3.712;2023-04-12T12:19:25;4.2;;;1;;
74457;SDS011;62896;51.032;3.712;2023-04-12T12:22:43;4.2;;;1;;
74457;SDS011;62896;51.032;3.712;2023-04-12T12:26:00;4.2;;;1;;
74457;SDS011;62896;51.032;3.712;2023-04-12T12:29:20;4.2;;;1;;
74457;SDS011;62896;51.032;3.712;2023-04-12T12:32:40;4.2;;;1;;
74457;SDS011;62896;51.032;3.712;2023-04-12T12:36:00;3.3;;;0.7;;
74457;SDS011;62896;51.032;3.712;2023-04-12T12:39:20;3.3;;;0.7;;
74457;SDS011;62896;51.032;3.712;2023-04-12T12:42:43;3.3;;;0.7;;
74457;SDS011;62896;51.032;3.712;2023-04-12T12:46:00;3.3;;;0.7;;
74457;SDS011;62896;51.032;3.712;2023-04-12T12:49:20;3.3;;;0.7;;
74457;SDS011;62896;51.032;3.712;2023-04-12T12:52:40;3.3;;;0.7;;
74457;SDS011;62896;51.032;3.712;2023-04-12T12:56:00;3.3;;;0.7;;
74457;SDS011;62896;51.032;3.712;2023-04-12T12:59:20;3.3;;;0.7;;
74457;SDS011;62896;51.032;3.712;2023-04-12T13:02:40;2.5;;;0.8;;
74457;SDS011;62896;51.032;3.712;2023-04-12T13:06:00;2.5;;;0.8;;
74457;SDS011;62896;51.032;3.712;2023-04-12T13:09:20;2.5;;;0.8;;
74457;SDS011;62896;51.032;3.712;2023-04-12T13:12:40;2.5;;;0.8;;
74457;SDS011;62896;51.032;3.712;2023-04-12T13:16:00;2.5;;;0.8;;
74457;SDS011;62896;51.032;3.712;2023-04-12T13:19:20;2.5;;;0.8;;
74457;SDS011;62896;51.032;3.712;2023-04-12T13:22:40;2.5;;;0.8;;
74457;SDS011;62896;51.032;3.712;2023-04-12T13:26:00;3.4;;;1;;
74457;SDS011;62896;51.032;3.712;2023-04-12T13:29:20;3.4;;;1;;
74457;SDS011;62896;51.032;3.712;2023-04-12T13:32:40;3.4;;;1;;
74457;SDS011;62896;51.032;3.712;2023-04-12T13:36:00;3.4;;;1;;
74457;SDS011;62896;51.032;3.712;2023-04-12T13:39:20;3.4;;;1;;
74457;SDS011;62896;51.032;3.712;2023-04-12T13:42:40;3.4;;;1;;
74457;SDS011;62896;51.032;3.712;2023-04-12T13:46:00;3.4;;;1;;
74457;SDS011;62896;51.032;3.712;2023-04-12T13:49:20;3.4;;;1;;
74457;SDS011;62896;51.032;3.712;2023-04-12T13:52:40;6.2;;;1.4;;
74457;SDS011;62896;51.032;3.712;2023-04-12T13:56:00;6.2;;;1.4;;
74457;SDS011;62896;51.032;3.712;2023-04-12T13:59:20;6.2;;;1.4;;
74457;SDS011;62896;51.032;3.712;2023-04-12T14:02:40;6.2;;;1.4;;
74457;SDS011;62896;51.032;3.712;2023-04-12T14:06:00;6.2;;;1.4;;
74457;SDS011;62896;51.032;3.712;2023-04-12T14:09:21;6.2;;;1.4;;
74457;SDS011;62896;51.032;3.712;2023-04-12T14:12:40;6.2;;;1.4;;
74457;SDS011;62896;51.032;3.712;2023-04-12T14:16:00;4.4;;;1;;
74457;SDS011;62896;51.032;3.712;2023-04-12T14:19:20;4.4;;;1;;
74457;SDS011;62896;51.032;3.712;2023-04-12T14:22:40;4.4;;;1;;
74457;SDS011;62896;51.032;3.712;2023-04-12T14:26:00;4.4;;;1;;
74457;SDS011;62896;51.032;3.712;2023-04-12T14:29:20;4.4;;;1;;
74457;SDS011;62896;51.032;3.712;2023-04-12T14:32:40;4.4;;;1;;
74457;SDS011;62896;51.032;3.712;2023-04-12T14:36:00;4.4;;;1;;
74457;SDS011;62896;51.032;3.712;2023-04-12T14:39:20;4.4;;;1;;
74457;SDS011;62896;51.032;3.712;2023-04-12T14:42:40;3.3;;;1.1;;
74457;SDS011;62896;51.032;3.712;2023-04-12T14:46:00;3.3;;;1.1;;
74457;SDS011;62896;51.032;3.712;2023-04-12T14:49:20;3.3;;;1.1;;
74457;SDS011;62896;51.032;3.712;2023-04-12T14:52:40;3.3;;;1.1;;
74457;SDS011;62896;51.032;3.712;2023-04-12T14:56:00;3.3;;;1.1;;
74457;SDS011;62896;51.032;3.712;2023-04-12T14:59:20;3.3;;;1.1;;
74457;SDS011;62896;51.032;3.712;2023-04-12T15:02:40;3.3;;;1.1;;
74457;SDS011;62896;51.032;3.712;2023-04-12T15:06:00;4.6;;;1.2;;
74457;SDS011;62896;51.032;3.712;2023-04-12T15:09:20;4.6;;;1.2;;
74457;SDS011;62896;51.032;3.712;2023-04-12T15:12:40;4.6;;;1.2;;
74457;SDS011;62896;51.032;3.712;2023-04-12T15:16:00;4.6;;;1.2;;
74457;SDS011;62896;51.032;3.712;2023-04-12T15:19:20;4.6;;;1.2;;
74457;SDS011;62896;51.032;3.712;2023-04-12T15:22:40;4.6;;;1.2;;
74457;SDS011;62896;51.032;3.712;2023-04-12T15:26:00;4.6;;;1.2;;
74457;SDS011;62896;51.032;3.712;2023-04-12T15:29:20;4.6;;;1.2;;
74457;SDS011;62896;51.032;3.712;2023-04-12T15:32:40;1.9;;;0.8;;
74457;SDS011;62896;51.032;3.712;2023-04-12T15:36:00;1.9;;;0.8;;
74457;SDS011;62896;51.032;3.712;2023-04-12T15:39:20;1.9;;;0.8;;
74457;SDS011;62896;51.032;3.712;2023-04-12T15:42:40;1.9;;;0.8;;
74457;SDS011;62896;51.032;3.712;2023-04-12T15:46:00;1.9;;;0.8;;
74457;SDS011;62896;51.032;3.712;2023-04-12T15:49:20;1.9;;;0.8;;
74457;SDS011;62896;51.032;3.712;2023-04-12T15:52:40;1.9;;;0.8;;
74457;SDS011;62896;51.032;3.712;2023-04-12T15:56:00;4;;;1.1;;
74457;SDS011;62896;51.032;3.712;2023-04-12T15:59:20;4;;;1.1;;
74457;SDS011;62896;51.032;3.712;2023-04-12T16:02:40;4;;;1.1;;
74457;SDS011;62896;51.032;3.712;2023-04-12T16:06:00;4;;;1.1;;
74457;SDS011;62896;51.032;3.712;2023-04-12T16:09:20;4;;;1.1;;
74457;SDS011;62896;51.032;3.712;2023-04-12T16:12:40;4;;;1.1;;
74457;SDS011;62896;51.032;3.712;2023-04-12T16:16:00;4;;;1.1;;
74457;SDS011;62896;51.032;3.712;2023-04-12T16:19:20;4;;;1.1;;
74457;SDS011;62896;51.032;3.712;2023-04-12T16:22:40;4.2;;;1;;
74457;SDS011;62896;51.032;3.712;2023-04-12T16:26:00;4.2;;;1;;
74457;SDS011;62896;51.032;3.712;2023-04-12T16:29:20;4.2;;;1;;
74457;SDS011;62896;51.032;3.712;2023-04-12T16:32:40;4.2;;;1;;
74457;SDS011;62896;51.032;3.712;2023-04-12T16:36:00;4.2;;;1;;
74457;SDS011;62896;51.032;3.712;2023-04-12T16:39:20;4.2;;;1;;
74457;SDS011;62896;51.032;3.712;2023-04-12T16:42:40;4.2;;;1;;
74457;SDS011;62896;51.032;3.712;2023-04-12T16:46:02;3.3;;;0.9;;
74457;SDS011;62896;51.032;3.712;2023-04-12T16:49:20;3.3;;;0.9;;
74457;SDS011;62896;51.032;3.712;2023-04-12T16:52:40;3.3;;;0.9;;
74457;SDS011;62896;51.032;3.712;2023-04-12T16:56:00;3.3;;;0.9;;
74457;SDS011;62896;51.032;3.712;2023-04-12T16:59:20;3.3;;;0.9;;
74457;SDS011;62896;51.032;3.712;2023-04-12T17:02:40;3.3;;;0.9;;
74457;SDS011;62896;51.032;3.712;2023-04-12T17:06:00;3.3;;;0.9;;
74457;SDS011;62896;51.032;3.712;2023-04-12T17:09:20;3.3;;;0.9;;
74457;SDS011;62896;51.032;3.712;2023-04-12T17:12:40;2.6;;;0.8;;
74457;SDS011;62896;51.032;3.712;2023-04-12T17:16:00;2.6;;;0.8;;
74457;SDS011;62896;51.032;3.712;2023-04-12T17:19:20;2.6;;;0.8;;
74457;SDS011;62896;51.032;3.712;2023-04-12T17:22:40;2.6;;;0.8;;
74457;SDS011;62896;51.032;3.712;2023-04-12T17:26:00;2.6;;;0.8;;
74457;SDS011;62896;51.032;3.712;2023-04-12T17:29:20;2.6;;;0.8;;
74457;SDS011;62896;51.032;3.712;2023-04-12T17:32:40;2.6;;;0.8;;
74457;SDS011;62896;51.032;3.712;2023-04-12T17:36:00;6.7;;;1.1;;
74457;SDS011;62896;51.032;3.712;2023-04-12T17:39:20;6.7;;;1.1;;
74457;SDS011;62896;51.032;3.712;2023-04-12T17:42:40;6.7;;;1.1;;
74457;SDS011;62896;51.032;3.712;2023-04-12T17:46:00;6.7;;;1.1;;
74457;SDS011;62896;51.032;3.712;2023-04-12T17:49:20;6.7;;;1.1;;
74457;SDS011;62896;51.032;3.712;2023-04-12T17:52:40;6.7;;;1.1;;
74457;SDS011;62896;51.032;3.712;2023-04-12T17:56:00;6.7;;;1.1;;
74457;SDS011;62896;51.032;3.712;2023-04-12T17:59:20;6.7;;;1.1;;
74457;SDS011;62896;51.032;3.712;2023-04-12T18:02:41;5.4;;;1;;
74457;SDS011;62896;51.032;3.712;2023-04-12T18:06:00;5.4;;;1;;
74457;SDS011;62896;51.032;3.712;2023-04-12T18:09:20;5.4;;;1;;
74457;SDS011;62896;51.032;3.712;2023-04-12T18:12:41;5.4;;;1;;
74457;SDS011;62896;51.032;3.712;2023-04-12T18:16:00;5.4;;;1;;
74457;SDS011;62896;51.032;3.712;2023-04-12T18:19:20;5.4;;;1;;
74457;SDS011;62896;51.032;3.712;2023-04-12T18:22:40;5.4;;;1;;
74457;SDS011;62896;51.032;3.712;2023-04-12T18:26:00;3.7;;;1.1;;
74457;SDS011;62896;51.032;3.712;2023-04-12T18:29:20;3.7;;;1.1;;
74457;SDS011;62896;51.032;3.712;2023-04-12T18:32:40;3.7;;;1.1;;
74457;SDS011;62896;51.032;3.712;2023-04-12T18:36:01;3.7;;;1.1;;
74457;SDS011;62896;51.032;3.712;2023-04-12T18:39:20;3.7;;;1.1;;
74457;SDS011;62896;51.032;3.712;2023-04-12T18:42:41;3.7;;;1.1;;
74457;SDS011;62896;51.032;3.712;2023-04-12T18:46:00;3.7;;;1.1;;
74457;SDS011;62896;51.032;3.712;2023-04-12T18:49:20;3.7;;;1.1;;
74457;SDS011;62896;51.032;3.712;2023-04-12T18:52:40;3.9;;;0.9;;
74457;SDS011;62896;51.032;3.712;2023-04-12T18:56:05;3.9;;;0.9;;
74457;SDS011;62896;51.032;3.712;2023-04-12T18:59:20;3.9;;;0.9;;
74457;SDS011;62896;51.032;3.712;2023-04-12T19:02:40;3.9;;;0.9;;
74457;SDS011;62896;51.032;3.712;2023-04-12T19:06:00;3.9;;;0.9;;
74457;SDS011;62896;51.032;3.712;2023-04-12T19:09:20;3.9;;;0.9;;
74457;SDS011;62896;51.032;3.712;2023-04-12T19:12:40;3.9;;;0.9;;
74457;SDS011;62896;51.032;3.712;2023-04-12T19:16:00;3.7;;;0.7;;
74457;SDS011;62896;51.032;3.712;2023-04-12T19:19:20;3.7;;;0.7;;
74457;SDS011;62896;51.032;3.712;2023-04-12T19:22:40;3.7;;;0.7;;
74457;SDS011;62896;51.032;3.712;2023-04-12T19:26:00;3.7;;;0.7;;
74457;SDS011;62896;51.032;3.712;2023-04-12T19:29:20;3.7;;;0.7;;
74457;SDS011;62896;51.032;3.712;2023-04-12T19:32:40;3.7;;;0.7;;
74457;SDS011;62896;51.032;3.712;2023-04-12T19:36:00;3.7;;;0.7;;
74457;SDS011;62896;51.032;3.712;2023-04-12T19:39:20;3.7;;;0.7;;
74457;SDS011;62896;51.032;3.712;2023-04-12T19:42:40;6.3;;;0.7;;
74457;SDS011;62896;51.032;3.712;2023-04-12T19:46:01;6.3;;;0.7;;
74457;SDS011;62896;51.032;3.712;2023-04-12T19:49:20;6.3;;;0.7;;
74457;SDS011;62896;51.032;3.712;2023-04-12T19:52:41;6.3;;;0.7;;
74457;SDS011;62896;51.032;3.712;2023-04-12T19:56:00;6.3;;;0.7;;
74457;SDS011;62896;51.032;3.712;2023-04-12T19:59:20;6.3;;;0.7;;
74457;SDS011;62896;51.032;3.712;2023-04-12T20:02:40;6.3;;;0.7;;
74457;SDS011;62896;51.032;3.712;2023-04-12T20:06:00;1.2;;;0.5;;
74457;SDS011;62896;51.032;3.712;2023-04-12T20:09:20;1.2;;;0.5;;
74457;SDS011;62896;51.032;3.712;2023-04-12T20:12:40;1.2;;;0.5;;
74457;SDS011;62896;51.032;3.712;2023-04-12T20:16:00;1.2;;;0.5;;
74457;SDS011;62896;51.032;3.712;2023-04-12T20:19:20;1.2;;;0.5;;
74457;SDS011;62896;51.032;3.712;2023-04-12T20:22:41;1.2;;;0.5;;
74457;SDS011;62896;51.032;3.712;2023-04-12T20:26:00;1.2;;;0.5;;
74457;SDS011;62896;51.032;3.712;2023-04-12T20:29:20;1.2;;;0.5;;
74457;SDS011;62896;51.032;3.712;2023-04-12T20:32:40;1.6;;;0.6;;
74457;SDS011;62896;51.032;3.712;2023-04-12T20:36:00;1.6;;;0.6;;
74457;SDS011;62896;51.032;3.712;2023-04-12T20:39:20;1.6;;;0.6;;
74457;SDS011;62896;51.032;3.712;2023-04-12T20:42:40;1.6;;;0.6;;
74457;SDS011;62896;51.032;3.712;2023-04-12T20:46:00;1.6;;;0.6;;
74457;SDS011;62896;51.032;3.712;2023-04-12T20:49:20;1.6;;;0.6;;
74457;SDS011;62896;51.032;3.712;2023-04-12T20:52:40;1.6;;;0.6;;